Flight Track Log - Related Links

Times and Time Zones

All times are in EDT time to prevent confusion due to time zone crossing. See the SWA3313 flight status page for this flight to view local times or setup timezone preferences in your user account.


Time Position Orientation Groundspeed Altitude Reporting Facility
EDT Latitude Longitude Course Direction KTS MPH feet Rate Location/Type
Thu 08:25:34 PM 39.1833 -76.7167 211° Southwest 171 197 1,700  Level Potomac TRACON
Thu 08:26:34 PM 39.1833 -76.7833 270° West 228 262 3,600 2,600 Climbing Potomac TRACON
Thu 08:27:34 PM 39.2000 -76.8833 282° West 256 295 6,900 3,850 Climbing Potomac TRACON
Thu 08:28:34 PM 39.2167 -76.9667 284° West 248 285 11,300 3,150 Climbing Potomac TRACON
Thu 08:29:34 PM 39.2167 -77.0667 270° West 313 360 13,200 2,628 Climbing Potomac TRACON
Thu 08:30:35 PM 39.1833 -77.1833 250° West 349 402 16,600 3,260 Climbing Potomac TRACON
Thu 08:31:00 PM 39.0647 -77.2590 211° Southwest  Level FlightAware Approximate
Thu 08:31:41 PM 39.0833 -77.2500 207° Southwest 351 404 20,100  Level Potomac TRACON
Thu 08:32:35 PM 39.0167 -77.3167 218° Southwest 369 425 22,300 1,168 Climbing Potomac TRACON
Thu 08:34:51 PM 38.7853 -77.3839 193° South 421 484 23,800 1,378 Climbing Washington Center
Thu 08:35:51 PM 38.6808 -77.4081 190° South 403 464 26,800 1,733 Climbing Washington Center
Thu 08:37:51 PM 38.4936 -77.5122 204° Southwest 361 415 29,000 1,333 Climbing Washington Center
Thu 08:38:51 PM 38.4008 -77.5733 207° Southwest 366 421 30,800 1,500 Climbing Washington Center
Thu 08:39:51 PM 38.3325 -77.6669 227° Southwest 366 421 32,000 600 Climbing Washington Center
Thu 08:40:51 PM 38.2619 -77.7758 230° Southwest 366 421 32,000  Level Washington Center
Thu 08:41:51 PM 38.1994 -77.8719 230° Southwest 366 421 32,000  Level Washington Center
Thu 08:42:51 PM 38.1328 -77.9756 231° Southwest 371 427 32,000  Level Washington Center
Thu 08:43:51 PM 38.0683 -78.0736 230° Southwest 371 427 32,000  Level Washington Center
Thu 08:44:51 PM 38.0039 -78.1664 229° Southwest 371 427 32,000  Level Washington Center
Thu 08:45:51 PM 37.9478 -78.2567 232° Southwest 366 421 32,000  Level Washington Center
Thu 08:46:51 PM 37.8808 -78.3542 229° Southwest 366 421 32,000  Level Washington Center
Thu 08:47:51 PM 37.8053 -78.4619 228° Southwest 376 433 32,000  Level Washington Center
Thu 08:48:51 PM 37.7361 -78.5564 227° Southwest 376 433 32,000  Level Washington Center
Thu 08:49:51 PM 37.6692 -78.6536 229° Southwest 376 433 32,000  Level Washington Center
Thu 08:50:51 PM 37.6019 -78.7506 229° Southwest 370 426 32,000  Level Washington Center
Thu 08:51:51 PM 37.5414 -78.8317 227° Southwest 370 426 32,000  Level Washington Center
Thu 08:52:51 PM 37.4739 -78.9308 229° Southwest 370 426 32,000  Level Washington Center
Thu 08:53:51 PM 37.4044 -79.0247 227° Southwest 370 426 32,000  Level Washington Center
Thu 08:54:51 PM 37.3372 -79.1208 229° Southwest 370 426 32,000  Level Washington Center
Thu 08:55:51 PM 37.2675 -79.2142 227° Southwest 370 426 32,000  Level Washington Center
Thu 08:56:51 PM 37.1708 -79.3033 216° Southwest 376 433 32,000  Level Washington Center
Thu 08:57:51 PM 37.0789 -79.3797 214° Southwest 395 455 32,000  Level Washington Center
Thu 08:58:51 PM 36.9867 -79.4583 214° Southwest 401 461 32,000  Level Washington Center
Thu 08:59:51 PM 36.8944 -79.5344 213° Southwest 406 467 32,000  Level Washington Center
Thu 09:00:51 PM 36.8022 -79.6100 213° Southwest 406 467 32,000 -100 Level Washington Center
Thu 09:01:51 PM 36.7186 -79.6783 213° Southwest 406 467 31,800 -1,131 Descending Washington Center
Thu 09:02:53 PM 36.6156 -79.7608 213° Southwest 403 464 29,700 -2,262 Descending Atlanta Center
Thu 09:03:53 PM 36.5306 -79.8300 213° Southwest 398 458 27,200 -2,350 Descending Atlanta Center
Thu 09:04:53 PM 36.4472 -79.8964 213° Southwest 377 434 25,000 -2,100 Descending Atlanta Center
Thu 09:05:53 PM 36.3661 -79.9625 213° Southwest 367 422 23,000 -1,500 Descending Atlanta Center
Thu 09:06:53 PM 36.2847 -80.0283 213° Southwest 362 417 22,000 -500 Descending Atlanta Center
Thu 09:07:53 PM 36.2097 -80.0939 215° Southwest 362 417 22,000 -800 Level Atlanta Center
Thu 09:08:53 PM 36.1306 -80.1594 214° Southwest 362 417 20,400 -1,800 Descending Atlanta Center
Thu 09:09:53 PM 36.0514 -80.2300 216° Southwest 362 417 18,400 -1,900 Descending Atlanta Center
Thu 09:10:53 PM 35.9742 -80.2953 214° Southwest 357 411 16,600 -2,135 Descending Atlanta Center
Thu 09:11:37 PM 35.9092 -80.3547 217° Southwest 336 387 14,700 -2,200 Descending Atlanta Center
Thu 09:11:53 PM 35.8947 -80.3631 205° Southwest 348 400 14,400 -1,935 Descending Atlanta Center
Thu 09:12:08 PM 35.8725 -80.3844 218° Southwest 333 383 13,700 -1,300 Descending Atlanta Center
Thu 09:12:53 PM 35.8236 -80.4250 214° Southwest 343 395 13,100 -700 Descending Atlanta Center
Thu 09:13:08 PM 35.8033 -80.4439 217° Southwest 310 357 13,000 -100 Descending Atlanta Center
Thu 09:13:53 PM 35.7583 -80.4792 212° Southwest 310 357 13,000  Level Atlanta Center
Thu 09:14:09 PM 35.7319 -80.5058 219° Southwest 280 322 13,000 -900 Level Atlanta Center
Thu 09:14:53 PM 35.6869 -80.5283 202° Southwest 292 336 12,100 -1,475 Descending Atlanta Center
Thu 09:15:10 PM 35.6539 -80.5450 202° Southwest 298 343 11,500 -1,200 Descending Atlanta Center
Thu 09:15:53 PM 35.6106 -80.5647 200° South 292 336 10,900 -806 Descending Atlanta Center
Thu 09:16:17 PM 35.5778 -80.5839 205° Southwest 274 315 10,600 -800 Descending Atlanta Center
Thu 09:16:53 PM 35.5342 -80.5908 187° South 280 322 10,100 -1,279 Descending Atlanta Center
Thu 09:17:18 PM 35.5092 -80.5944 187° South 248 285 9,300 -1,600 Descending Atlanta Center
Thu 09:17:53 PM 35.4656 -80.5989 185° South 269 310 8,500 -1,672 Descending Atlanta Center
Thu 09:18:19 PM 35.4433 -80.6253 224° Southwest 234 269 7,600 -1,900 Descending Atlanta Center
Thu 09:18:53 PM 35.4192 -80.6569 227° Southwest 233 268 6,600 -1,700 Descending Atlanta Center
Thu 09:19:19 PM 35.4033 -80.6856 236° Southwest 236 272 5,900 -1,300 Descending Atlanta Center
Thu 09:19:53 PM 35.3769 -80.7172 224° Southwest 239 275 5,300 -1,180 Descending Atlanta Center
Thu 09:20:20 PM 35.3592 -80.7461 233° Southwest 229 264 4,700 -1,200 Descending Atlanta Center
Thu 09:20:53 PM 35.3389 -80.7697 224° Southwest 223 257 4,100 -984 Descending Atlanta Center
Thu 09:21:21 PM 35.3228 -80.7908 227° Southwest 178 205 3,700 -809 Descending Atlanta Center
Thu 09:22:22 PM 35.2967 -80.8325 232° Southwest 154 177 2,900 -787 Descending Atlanta Center
Thu 09:23:23 PM 35.2683 -80.8692 227° Southwest 140 161 2,100 -793 Descending Atlanta Center
Thu 09:24:23 PM 35.2381 -80.9111 229° Southwest 146 168 1,300 -800 Descending Atlanta Center
Thu 09:26:00 PM 35.2137 -80.9491 176° South  Level Estimated

Login

Don't have an account? Register now (free) for customized features, flight alerts, and more!